createdAt,value
2018-12-14T00:01:04.496Z,97372.45
2018-12-14T00:03:32.127Z,97378.27
2018-12-14T00:05:59.787Z,97284.96
2018-12-14T00:08:27.432Z,97374.33
2018-12-14T00:10:55.086Z,97375.52
2018-12-14T00:13:22.739Z,97374.17
2018-12-14T00:15:50.404Z,97376.59
2018-12-14T00:18:18.056Z,97376.17
2018-12-14T00:20:45.705Z,97374.70
2018-12-14T00:23:13.356Z,97382.40
2018-12-14T00:25:41.010Z,97375.67
2018-12-14T00:28:08.660Z,97377.39
2018-12-14T00:30:36.370Z,97376.44
2018-12-14T00:33:04.019Z,97378.58
2018-12-14T00:35:31.706Z,97374.38
2018-12-14T00:37:59.406Z,97375.04
2018-12-14T00:40:27.057Z,97379.51
2018-12-14T00:42:54.711Z,97388.55
2018-12-14T00:45:22.399Z,97372.02
2018-12-14T00:47:50.090Z,97379.55
2018-12-14T00:50:17.759Z,97373.42
2018-12-14T00:52:45.603Z,97377.78
2018-12-14T00:55:13.258Z,97377.08
2018-12-14T00:57:40.899Z,97373.38
2018-12-14T01:00:09.290Z,97359.09
2018-12-14T01:02:36.959Z,97370.36
2018-12-14T01:05:04.772Z,97377.02
2018-12-14T01:07:32.435Z,97380.36
2018-12-14T01:10:00.096Z,97387.84
2018-12-14T01:12:27.728Z,97389.99
2018-12-14T01:14:55.411Z,97386.81
2018-12-14T01:17:23.121Z,97389.18
2018-12-14T01:19:50.776Z,97389.34
2018-12-14T01:22:18.497Z,97394.19
2018-12-14T01:24:46.703Z,97400.28
2018-12-14T01:27:14.353Z,97406.78
2018-12-14T01:29:42.351Z,97401.84
2018-12-14T01:32:10.019Z,97408.03
2018-12-14T01:34:37.684Z,97408.72
2018-12-14T01:37:05.326Z,97416.09
2018-12-14T01:39:32.956Z,97414.17
2018-12-14T01:42:04.794Z,97410.39
2018-12-14T01:44:30.271Z,97419.13
2018-12-14T01:46:57.903Z,97418.81
2018-12-14T01:49:25.577Z,97417.88
2018-12-14T01:51:53.271Z,97416.48
2018-12-14T01:54:20.887Z,97408.19
2018-12-14T01:56:48.520Z,97402.06
2018-12-14T01:59:16.166Z,97400.02
2018-12-14T02:01:43.842Z,97403.13
2018-12-14T02:04:11.518Z,97403.28
2018-12-14T02:06:39.281Z,97399.51
2018-12-14T02:09:07.164Z,97401.23
2018-12-14T02:11:34.809Z,97389.99
2018-12-14T02:14:02.470Z,97392.36
2018-12-14T02:16:30.107Z,97396.30
2018-12-14T02:18:57.766Z,97396.23
2018-12-14T02:21:25.388Z,97396.13
2018-12-14T02:23:53.032Z,97390.92
2018-12-14T02:26:20.697Z,97389.08
2018-12-14T02:28:48.400Z,97386.06
2018-12-14T02:31:16.124Z,97389.63
2018-12-14T02:33:43.750Z,97391.89
2018-12-14T02:36:11.383Z,97382.03
2018-12-14T02:38:39.019Z,97375.84
2018-12-14T02:41:06.639Z,97374.93
2018-12-14T02:43:34.570Z,97371.59
2018-12-14T02:46:02.360Z,97380.81
2018-12-14T02:48:29.978Z,97378.04
2018-12-14T02:50:57.602Z,97379.55
2018-12-14T02:53:25.335Z,97377.02
2018-12-14T02:55:52.948Z,97378.04
2018-12-14T02:58:20.581Z,97379.51
2018-12-14T03:00:48.213Z,97377.07
2018-12-14T03:03:15.907Z,97381.28
2018-12-14T03:05:43.584Z,97382.62
2018-12-14T03:08:11.214Z,97392.27
2018-12-14T03:10:38.839Z,97395.66
2018-12-14T03:13:06.503Z,97398.34
2018-12-14T03:15:34.139Z,97410.81
2018-12-14T03:18:01.816Z,97404.79
2018-12-14T03:20:29.579Z,97397.33
2018-12-14T03:22:57.301Z,97404.75
2018-12-14T03:25:24.977Z,97398.83
2018-12-14T03:27:52.611Z,97401.29
2018-12-14T03:30:20.266Z,97403.34
2018-12-14T03:32:48.030Z,97406.62
2018-12-14T03:35:15.737Z,97398.86
2018-12-14T03:37:43.388Z,97406.89
2018-12-14T03:40:11.071Z,97407.77
2018-12-14T03:42:38.725Z,97417.60
2018-12-14T03:45:06.356Z,97415.78
2018-12-14T03:47:34.016Z,97415.23
2018-12-14T03:50:01.687Z,97413.50
2018-12-14T03:52:29.376Z,97413.72
2018-12-14T03:54:57.025Z,97418.40
2018-12-14T03:57:24.710Z,97427.40
2018-12-14T03:59:52.355Z,97412.88
2018-12-14T04:02:20.079Z,97422.24
2018-12-14T04:04:47.736Z,97422.12
2018-12-14T04:07:15.370Z,97413.62
2018-12-14T04:09:43.039Z,97418.72
2018-12-14T04:12:10.714Z,97421.41
2018-12-14T04:14:38.396Z,97425.84
2018-12-14T04:17:06.067Z,97421.70
2018-12-14T04:19:33.706Z,97426.21
2018-12-14T04:22:01.362Z,97429.25
2018-12-14T04:24:29.139Z,97434.39
2018-12-14T04:26:56.763Z,97437.08
2018-12-14T04:29:24.432Z,97441.34
2018-12-14T04:31:52.087Z,97439.98
2018-12-14T04:34:19.868Z,97445.15
2018-12-14T04:36:47.541Z,97442.14
2018-12-14T04:39:15.231Z,97448.55
2018-12-14T04:41:42.880Z,97450.53
2018-12-14T04:44:10.545Z,97448.45
2018-12-14T04:46:38.292Z,97448.70
2018-12-14T04:49:06.056Z,97456.45
2018-12-14T04:51:33.738Z,97453.77
2018-12-14T04:54:01.421Z,97458.31
2018-12-14T04:56:29.084Z,97460.05
2018-12-14T04:58:56.739Z,97456.23
2018-12-14T05:01:24.372Z,97456.08
2018-12-14T05:03:52.023Z,97459.31
2018-12-14T05:06:19.659Z,97460.02
2018-12-14T05:08:47.331Z,97456.14
2018-12-14T05:11:14.951Z,97453.70
2018-12-14T05:13:42.609Z,97461.52
2018-12-14T05:16:10.246Z,97463.37
2018-12-14T05:18:37.906Z,97459.85
2018-12-14T05:21:05.539Z,97459.66
2018-12-14T05:23:33.208Z,97459.02
2018-12-14T05:26:00.867Z,97452.23
2018-12-14T05:28:28.507Z,97459.47
2018-12-14T05:30:56.147Z,97457.10
2018-12-14T05:33:23.789Z,97464.41
2018-12-14T05:35:51.431Z,97464.05
2018-12-14T05:38:19.117Z,97464.69
2018-12-14T05:40:46.772Z,97465.55
2018-12-14T05:43:14.420Z,97464.72
2018-12-14T05:45:42.084Z,97466.77
2018-12-14T05:48:09.804Z,97430.16
2018-12-14T05:50:37.508Z,97468.19
2018-12-14T05:53:05.208Z,97473.56
2018-12-14T05:55:32.929Z,97480.36
2018-12-14T05:58:00.674Z,97477.59
2018-12-14T06:00:28.338Z,97482.91
2018-12-14T06:02:56.043Z,97483.48
2018-12-14T06:05:23.708Z,97483.53
2018-12-14T06:07:51.352Z,97488.30
2018-12-14T06:10:18.972Z,97470.97
2018-12-14T06:12:46.648Z,97494.38
2018-12-14T06:15:14.347Z,97489.55
2018-12-14T06:17:42.018Z,97496.18
2018-12-14T06:20:09.700Z,97496.27
2018-12-14T06:22:37.335Z,97496.84
2018-12-14T06:25:05.318Z,97500.79
2018-12-14T06:27:33.144Z,97501.75
2018-12-14T06:30:00.855Z,97503.71
2018-12-14T06:32:28.588Z,97499.13
2018-12-14T06:34:56.231Z,97495.18
2018-12-14T06:37:24.112Z,97503.73
2018-12-14T06:39:51.810Z,97504.05
2018-12-14T06:42:19.859Z,97505.08
2018-12-14T06:44:47.721Z,97503.07
2018-12-14T06:47:15.481Z,97506.40
2018-12-14T06:49:43.116Z,97507.67
2018-12-14T06:52:10.806Z,97513.12
2018-12-14T06:54:38.510Z,97513.16
2018-12-14T06:57:06.200Z,97508.87
2018-12-14T06:59:33.910Z,97510.12
2018-12-14T07:02:01.595Z,97515.91
2018-12-14T07:04:29.369Z,97515.66
2018-12-14T07:06:57.000Z,97518.98
2018-12-14T07:09:24.661Z,97528.12
2018-12-14T07:11:52.333Z,97528.70
2018-12-14T07:14:20.015Z,97523.96
2018-12-14T07:16:47.668Z,97528.54
2018-12-14T07:19:15.331Z,97528.31
2018-12-14T07:21:43.004Z,97536.94
2018-12-14T07:24:11.296Z,97539.69
2018-12-14T07:26:39.231Z,97536.20
2018-12-14T07:29:07.374Z,97539.48
2018-12-14T07:31:35.128Z,97541.67
2018-12-14T07:34:02.884Z,97541.94
2018-12-14T07:36:30.605Z,97549.05
2018-12-14T07:38:58.403Z,97539.37
2018-12-14T07:41:28.209Z,97544.28
2018-12-14T07:43:56.007Z,97548.31
2018-12-14T07:46:23.657Z,97550.39
2018-12-14T07:48:51.387Z,97556.55
2018-12-14T07:51:19.103Z,97555.45
2018-12-14T07:53:46.848Z,97557.38
2018-12-14T07:56:14.538Z,97557.69
2018-12-14T07:58:42.580Z,97564.23
2018-12-14T08:01:10.278Z,97565.35
2018-12-14T08:03:37.915Z,97565.35
2018-12-14T08:06:05.617Z,97565.98
2018-12-14T08:08:33.434Z,97574.05
2018-12-14T08:11:01.191Z,97574.36
2018-12-14T08:13:34.680Z,97582.09
2018-12-14T08:15:58.491Z,97584.27
2018-12-14T08:18:26.266Z,97579.81
2018-12-14T08:20:53.870Z,97587.80
2018-12-14T08:23:21.512Z,97583.92
2018-12-14T08:25:49.117Z,97587.16
2018-12-14T08:28:16.749Z,97589.88
2018-12-14T08:30:44.357Z,97587.16
2018-12-14T08:33:11.990Z,97589.31
2018-12-14T08:35:39.671Z,97590.14
2018-12-14T08:38:07.275Z,97588.22
2018-12-14T08:40:34.903Z,97591.69
2018-12-14T08:43:02.556Z,97594.31
2018-12-14T08:45:30.176Z,97599.22
2018-12-14T08:47:57.956Z,97602.72
2018-12-14T08:50:25.567Z,97601.84
2018-12-14T08:52:53.180Z,97605.78
2018-12-14T08:55:20.830Z,97604.12
2018-12-14T08:57:48.423Z,97608.80
2018-12-14T09:00:16.043Z,97614.09
2018-12-14T09:02:43.679Z,97614.03
2018-12-14T09:05:11.421Z,97611.81
2018-12-14T09:07:39.167Z,97616.89
2018-12-14T09:10:06.787Z,97623.94
2018-12-14T09:12:34.427Z,97619.48
2018-12-14T09:15:02.108Z,97622.08
2018-12-14T09:17:29.719Z,97626.28
2018-12-14T09:19:57.608Z,97626.67
2018-12-14T09:22:25.355Z,97624.69
2018-12-14T09:24:52.993Z,97627.86
2018-12-14T09:27:20.624Z,97628.63
2018-12-14T09:29:48.395Z,97634.43
2018-12-14T09:32:16.200Z,97636.14
2018-12-14T09:34:43.796Z,97632.03
2018-12-14T09:37:11.829Z,97635.27
2018-12-14T09:39:39.469Z,97639.31
2018-12-14T09:42:07.116Z,97645.41
2018-12-14T09:44:34.842Z,97643.90
2018-12-14T09:47:02.812Z,97643.03
2018-12-14T09:49:30.873Z,97643.41
2018-12-14T09:51:58.658Z,97645.41
2018-12-14T09:54:26.359Z,97644.54
2018-12-14T09:56:54.021Z,97649.73
2018-12-14T09:59:21.646Z,97643.16
2018-12-14T10:01:49.621Z,97646.23
2018-12-14T10:04:17.433Z,97645.76
2018-12-14T10:06:45.082Z,97652.11
2018-12-14T10:09:12.711Z,97655.58
2018-12-14T10:11:40.378Z,97650.66
2018-12-14T10:14:08.434Z,97650.31
2018-12-14T10:16:36.051Z,97649.92
2018-12-14T10:19:03.895Z,97651.20
2018-12-14T10:21:31.622Z,97650.56
2018-12-14T10:23:59.271Z,97650.56
2018-12-14T10:26:26.891Z,97657.95
2018-12-14T10:28:54.923Z,97653.57
2018-12-14T10:31:22.561Z,97659.56
2018-12-14T10:33:50.341Z,97647.17
2018-12-14T10:36:18.159Z,97652.56
2018-12-14T10:38:45.870Z,97648.14
2018-12-14T10:41:13.628Z,97654.88
2018-12-14T10:43:41.480Z,97651.44
2018-12-14T10:46:09.361Z,97650.19
2018-12-14T10:48:37.219Z,97651.59
2018-12-14T10:51:04.920Z,97644.38
2018-12-14T10:53:32.631Z,97647.38
2018-12-14T10:56:00.261Z,97647.92
2018-12-14T10:58:27.885Z,97649.09
2018-12-14T11:01:01.929Z,97644.63
2018-12-14T11:03:29.675Z,97651.92
2018-12-14T11:05:57.346Z,97658.11
2018-12-14T11:08:24.983Z,97661.13
2018-12-14T11:10:52.702Z,97613.37
2018-12-14T11:13:20.320Z,97654.56
2018-12-14T11:15:48.050Z,97653.27
2018-12-14T11:18:15.716Z,97653.79
2018-12-14T11:20:43.483Z,97657.59
2018-12-14T11:23:11.172Z,97649.87
2018-12-14T11:25:38.822Z,97652.99
2018-12-14T11:28:06.468Z,97652.84
2018-12-14T11:30:34.143Z,97648.95
2018-12-14T11:33:02.070Z,97649.82
2018-12-14T11:35:29.933Z,97651.31
2018-12-14T11:37:57.682Z,97646.90
2018-12-14T11:40:25.598Z,97649.64
2018-12-14T11:42:53.509Z,97645.05
2018-12-14T11:45:21.400Z,97644.25
2018-12-14T11:47:49.148Z,97640.63
2018-12-14T11:50:16.819Z,97643.82
2018-12-14T11:52:44.453Z,97641.27
2018-12-14T11:55:12.134Z,97635.88
2018-12-14T11:57:39.915Z,97640.10
2018-12-14T12:00:10.244Z,97642.72
2018-12-14T12:02:43.081Z,97645.59
2018-12-14T12:05:07.628Z,97643.45
2018-12-14T12:07:35.328Z,97631.56
2018-12-14T12:10:02.949Z,97635.03
2018-12-14T12:12:30.781Z,97638.59
2018-12-14T12:14:58.429Z,97634.54
2018-12-14T12:17:26.126Z,97643.08
2018-12-14T12:19:53.794Z,97638.05
2018-12-14T12:22:21.435Z,97637.68
2018-12-14T12:24:49.088Z,97638.38
2018-12-14T12:27:16.729Z,97644.68
2018-12-14T12:29:44.437Z,97652.77
2018-12-14T12:32:12.028Z,97647.47
2018-12-14T12:34:39.715Z,97649.36
2018-12-14T12:37:07.439Z,97644.56
2018-12-14T12:39:35.085Z,97645.05
2018-12-14T12:42:02.815Z,97645.64
2018-12-14T12:44:33.473Z,97642.80
2018-12-14T12:47:00.284Z,97636.10
2018-12-14T12:49:27.916Z,97651.41
2018-12-14T12:51:55.558Z,97645.32
2018-12-14T12:54:23.181Z,97650.66
2018-12-14T12:56:50.983Z,97646.34
2018-12-14T12:59:18.648Z,97647.69
2018-12-14T13:01:46.260Z,97640.02
2018-12-14T13:04:14.679Z,97645.95
2018-12-14T13:06:42.277Z,97649.78
2018-12-14T13:09:09.901Z,97639.22
2018-12-14T13:11:37.496Z,97646.22
2018-12-14T13:14:05.377Z,97645.89
2018-12-14T13:16:32.977Z,97645.20
2018-12-14T13:19:00.618Z,97643.73
2018-12-14T13:21:28.215Z,97641.95
2018-12-14T13:23:55.833Z,97650.34
2018-12-14T13:26:23.444Z,97648.11
2018-12-14T13:28:51.854Z,97647.94
2018-12-14T13:31:19.596Z,97651.36
2018-12-14T13:33:47.212Z,97654.02
2018-12-14T13:36:14.853Z,97656.95
2018-12-14T13:38:42.445Z,97661.36
2018-12-14T13:41:10.043Z,97656.39
2018-12-14T13:43:37.640Z,97661.14
2018-12-14T13:46:05.258Z,97670.58
2018-12-14T13:48:33.039Z,97676.80
2018-12-14T13:51:00.757Z,97667.48
2018-12-14T13:53:28.372Z,97674.05
2018-12-14T13:55:55.969Z,97669.61
2018-12-14T13:58:23.602Z,97670.88
2018-12-14T14:00:51.305Z,97670.30
2018-12-14T14:03:18.907Z,97672.88
2018-12-14T14:05:46.496Z,97668.77
2018-12-14T14:08:14.191Z,97672.34
2018-12-14T14:10:41.816Z,97679.96
2018-12-14T14:13:09.503Z,97678.91
2018-12-14T14:15:37.245Z,97682.08
2018-12-14T14:18:04.836Z,97678.22
2018-12-14T14:20:32.433Z,97685.00
2018-12-14T14:23:00.031Z,97691.23
2018-12-14T14:25:27.964Z,97698.31
2018-12-14T14:27:55.590Z,97690.91
2018-12-14T14:30:23.185Z,97697.19
2018-12-14T14:32:50.811Z,97698.53
2018-12-14T14:35:18.441Z,97702.51
2018-12-14T14:37:46.045Z,97696.05
2018-12-14T14:40:13.642Z,97700.94
2018-12-14T14:42:41.225Z,97708.23
2018-12-14T14:45:08.817Z,97707.77
2018-12-14T14:47:36.425Z,97712.84
2018-12-14T14:50:04.337Z,97712.88
2018-12-14T14:52:31.948Z,97714.22
2018-12-14T14:54:59.674Z,97724.41
2018-12-14T14:57:27.495Z,97724.88
2018-12-14T14:59:55.102Z,97729.73
2018-12-14T15:02:22.708Z,97726.62
2018-12-14T15:04:50.311Z,97726.84
2018-12-14T15:07:17.912Z,97726.38
2018-12-14T15:09:45.519Z,97726.30
2018-12-14T15:12:13.136Z,97729.91
2018-12-14T15:14:40.774Z,97729.91
2018-12-14T15:17:08.362Z,97733.23
2018-12-14T15:19:35.949Z,97741.67
2018-12-14T15:22:04.638Z,97738.05
2018-12-14T15:24:32.619Z,97736.48
2018-12-14T15:27:00.306Z,97739.16
2018-12-14T15:29:27.925Z,97739.80
2018-12-14T15:31:55.760Z,97745.50
2018-12-14T15:34:23.354Z,97751.23
2018-12-14T15:36:50.953Z,97740.39
2018-12-14T15:39:18.545Z,97753.83
2018-12-14T15:41:46.138Z,97757.51
2018-12-14T15:44:13.901Z,97763.02
2018-12-14T15:46:41.493Z,97760.91
2018-12-14T15:49:09.079Z,97763.23
2018-12-14T15:51:36.706Z,97768.78
2018-12-14T15:54:04.396Z,97768.86
2018-12-14T15:56:31.981Z,97770.56
2018-12-14T15:58:59.616Z,97768.09
2018-12-14T16:01:27.201Z,97769.55
2018-12-14T16:03:54.816Z,97764.48
2018-12-14T16:06:22.465Z,97773.02
2018-12-14T16:08:50.052Z,97768.53
2018-12-14T16:11:17.697Z,97776.89
2018-12-14T16:13:45.366Z,97778.89
2018-12-14T16:16:13.020Z,97776.84
2018-12-14T16:18:40.636Z,97782.73
2018-12-14T16:21:08.276Z,97779.88
2018-12-14T16:23:35.996Z,97780.61
2018-12-14T16:26:03.596Z,97782.41
2018-12-14T16:28:31.433Z,97786.45
2018-12-14T16:30:59.032Z,97789.47
2018-12-14T16:33:26.620Z,97792.83
2018-12-14T16:35:54.213Z,97796.34
2018-12-14T16:38:21.845Z,97798.63
2018-12-14T16:40:49.454Z,97804.50
2018-12-14T16:43:17.037Z,97795.48
2018-12-14T16:45:44.659Z,97793.05
2018-12-14T16:48:12.257Z,97799.10
2018-12-14T16:50:39.852Z,97804.03
2018-12-14T16:53:07.451Z,97816.06
2018-12-14T16:55:35.069Z,97809.91
2018-12-14T16:58:02.700Z,97817.78
2018-12-14T17:00:30.319Z,97819.36
2018-12-14T17:02:57.912Z,97818.92
2018-12-14T17:05:25.497Z,97824.48
2018-12-14T17:07:53.108Z,97826.28
2018-12-14T17:10:20.700Z,97831.03
2018-12-14T17:12:48.577Z,97828.54
2018-12-14T17:15:16.169Z,97837.34
2018-12-14T17:17:43.752Z,97831.36
2018-12-14T17:20:11.416Z,97838.27
2018-12-14T17:22:39.024Z,97843.19
2018-12-14T17:25:07.016Z,97834.38
2018-12-14T17:27:34.595Z,97838.30
2018-12-14T17:30:02.200Z,97841.13
2018-12-14T17:32:29.772Z,97834.66
2018-12-14T17:34:57.357Z,97838.43
2018-12-14T17:37:24.940Z,97831.09
2018-12-14T17:39:52.516Z,97835.94
2018-12-14T17:42:20.108Z,97839.98
2018-12-14T17:44:47.763Z,97840.38
2018-12-14T17:47:15.377Z,97838.38
2018-12-14T17:49:42.977Z,97841.19
2018-12-14T17:52:10.556Z,97850.48
2018-12-14T17:54:38.901Z,97850.95
2018-12-14T17:57:06.497Z,97853.18
2018-12-14T17:59:34.092Z,97853.55
2018-12-14T18:02:01.709Z,97849.83
2018-12-14T18:04:29.309Z,97852.78
2018-12-14T18:06:56.933Z,97855.66
2018-12-14T18:09:24.521Z,97862.41
2018-12-14T18:11:52.113Z,97863.70
2018-12-14T18:14:19.697Z,97862.34
2018-12-14T18:16:47.304Z,97854.80
2018-12-14T18:19:14.907Z,97857.33
2018-12-14T18:21:42.489Z,97859.06
2018-12-14T18:24:10.169Z,97862.18
2018-12-14T18:26:37.793Z,97860.25
2018-12-14T18:29:05.368Z,97860.25
2018-12-14T18:31:32.953Z,97854.41
2018-12-14T18:34:00.569Z,97853.38
2018-12-14T18:36:28.140Z,97858.45
2018-12-14T18:38:55.801Z,97861.42
2018-12-14T18:41:23.409Z,97860.90
2018-12-14T18:43:51.023Z,97866.03
2018-12-14T18:46:18.605Z,97865.47
2018-12-14T18:48:46.185Z,97871.89
2018-12-14T18:51:13.801Z,97862.89
2018-12-14T18:53:43.665Z,97870.92
2018-12-14T18:56:11.265Z,97866.55
2018-12-14T18:58:38.948Z,97864.12
2018-12-14T19:01:06.617Z,97875.91
2018-12-14T19:03:34.257Z,97874.11
2018-12-14T19:06:01.877Z,97883.50
2018-12-14T19:08:29.468Z,97874.37
2018-12-14T19:10:57.064Z,97885.66
2018-12-14T19:13:24.726Z,97880.09
2018-12-14T19:15:52.325Z,97886.68
2018-12-14T19:18:19.908Z,97888.35
2018-12-14T19:20:47.502Z,97892.98
2018-12-14T19:23:19.598Z,97890.34
2018-12-14T19:25:44.721Z,97893.20
2018-12-14T19:28:12.341Z,97894.17
2018-12-14T19:30:39.962Z,97904.48
2018-12-14T19:33:07.552Z,97907.83
2018-12-14T19:35:35.149Z,97905.19
2018-12-14T19:38:03.587Z,97912.80
2018-12-14T19:40:31.175Z,97919.97
2018-12-14T19:42:58.777Z,97924.95
2018-12-14T19:45:26.500Z,97929.58
2018-12-14T19:47:54.095Z,97935.29
2018-12-14T19:50:21.782Z,97941.14
2018-12-14T19:52:49.406Z,97941.47
2018-12-14T19:55:17.013Z,97943.20
2018-12-14T19:57:44.599Z,97946.54
2018-12-14T20:00:12.273Z,97943.04
2018-12-14T20:02:39.868Z,97941.46
2018-12-14T20:05:07.988Z,97949.08
2018-12-14T20:07:35.723Z,97948.30
2018-12-14T20:10:03.573Z,97951.23
2018-12-14T20:12:31.264Z,97950.36
2018-12-14T20:14:58.937Z,97947.66
2018-12-14T20:17:26.516Z,97949.00
2018-12-14T20:19:54.105Z,97951.86
2018-12-14T20:22:21.697Z,97959.65
2018-12-14T20:24:49.333Z,97961.32
2018-12-14T20:27:16.951Z,97820.41
2018-12-14T20:29:45.471Z,97966.55
2018-12-14T20:32:13.089Z,97964.49
2018-12-14T20:34:40.768Z,97962.88
2018-12-14T20:37:08.385Z,97961.84
2018-12-14T20:39:36.016Z,97966.77
2018-12-14T20:42:03.664Z,97968.92
2018-12-14T20:44:31.465Z,97965.97
2018-12-14T20:46:59.150Z,97974.17
2018-12-14T20:49:26.783Z,97974.06
2018-12-14T20:51:54.521Z,97972.32
2018-12-14T20:54:22.246Z,97970.20
2018-12-14T20:56:51.720Z,97980.09
2018-12-14T20:59:19.758Z,97889.09
2018-12-14T21:01:47.407Z,97978.69
2018-12-14T21:04:15.058Z,97976.37
2018-12-14T21:06:42.700Z,97978.59
2018-12-14T21:09:10.378Z,97980.83
2018-12-14T21:11:38.072Z,97980.83
2018-12-14T21:14:05.670Z,97977.66
2018-12-14T21:16:33.285Z,97975.43
2018-12-14T21:19:00.924Z,97979.72
2018-12-14T21:21:28.555Z,97975.30
2018-12-14T21:23:56.161Z,97980.05
2018-12-14T21:26:23.797Z,97986.39
2018-12-14T21:28:51.441Z,97980.11
2018-12-14T21:31:19.040Z,97982.88
2018-12-14T21:33:46.661Z,97983.37
2018-12-14T21:36:14.266Z,97983.61
2018-12-14T21:38:41.933Z,97985.59
2018-12-14T21:41:09.554Z,97991.14
2018-12-14T21:43:37.152Z,97985.20
2018-12-14T21:46:04.746Z,97992.12
2018-12-14T21:48:32.402Z,97991.22
2018-12-14T21:51:00.057Z,97993.84
2018-12-14T21:53:27.677Z,97989.88
2018-12-14T21:55:55.290Z,97987.50
2018-12-14T21:58:22.909Z,97921.29
2018-12-14T22:00:50.507Z,97981.80
2018-12-14T22:03:18.206Z,97984.25
2018-12-14T22:05:45.852Z,97974.33
2018-12-14T22:08:13.516Z,97978.61
2018-12-14T22:10:41.150Z,97975.83
2018-12-14T22:13:08.789Z,97983.38
2018-12-14T22:15:36.465Z,97980.91
2018-12-14T22:18:04.099Z,97983.55
2018-12-14T22:20:31.748Z,97977.12
2018-12-14T22:22:59.373Z,97982.25
2018-12-14T22:25:26.983Z,97985.84
2018-12-14T22:27:54.634Z,97981.31
2018-12-14T22:30:22.365Z,97978.62
2018-12-14T22:32:49.982Z,97973.86
2018-12-14T22:35:17.656Z,97974.27
2018-12-14T22:37:45.292Z,97972.83
2018-12-14T22:40:12.914Z,97973.53
2018-12-14T22:42:40.572Z,97969.42
2018-12-14T22:45:08.179Z,97970.83
2018-12-14T22:47:35.829Z,97973.21
2018-12-14T22:50:03.457Z,97973.94
2018-12-14T22:52:31.188Z,97976.95
2018-12-14T22:54:58.829Z,97982.27
2018-12-14T22:57:26.439Z,97978.47
2018-12-14T22:59:54.168Z,97985.59
2018-12-14T23:02:21.867Z,97988.37
2018-12-14T23:04:49.513Z,97991.24
2018-12-14T23:07:17.120Z,97991.70
2018-12-14T23:09:44.753Z,97993.68
2018-12-14T23:12:12.434Z,97988.29
2018-12-14T23:14:40.080Z,97983.93
2018-12-14T23:17:07.722Z,97977.28
2018-12-14T23:19:35.365Z,97983.76
2018-12-14T23:22:02.989Z,97975.98
2018-12-14T23:24:30.681Z,97977.28
2018-12-14T23:26:58.284Z,97981.23
2018-12-14T23:29:25.873Z,97981.47
2018-12-14T23:31:53.541Z,97979.80
2018-12-14T23:34:21.145Z,97978.05
2018-12-14T23:36:48.774Z,97978.54
2018-12-14T23:39:16.390Z,97978.05
2018-12-14T23:41:44.012Z,97686.48
2018-12-14T23:44:11.632Z,97976.96
2018-12-14T23:46:39.325Z,97979.72
2018-12-14T23:49:06.940Z,97979.80
2018-12-14T23:51:34.594Z,97981.30
2018-12-14T23:54:02.246Z,97988.34
2018-12-14T23:56:29.934Z,97998.90
2018-12-14T23:58:57.572Z,97995.72
